sensor_id;sensor_type;location;lat;lon;timestamp;pressure;altitude;pressure_sealevel;temperature;humidity
37764;BME280;23602;51.084;7.090;2023-03-23T00:02:01;99127.06;;;10.66;100.00
37764;BME280;23602;51.084;7.090;2023-03-23T00:04:27;99126.50;;;10.64;100.00
37764;BME280;23602;51.084;7.090;2023-03-23T00:06:54;99109.91;;;10.67;100.00
37764;BME280;23602;51.084;7.090;2023-03-23T00:09:19;99116.09;;;10.67;100.00
37764;BME280;23602;51.084;7.090;2023-03-23T00:11:48;99110.75;;;10.67;100.00
37764;BME280;23602;51.084;7.090;2023-03-23T00:14:16;99099.75;;;10.69;100.00
37764;BME280;23602;51.084;7.090;2023-03-23T00:16:47;99096.47;;;10.67;100.00
37764;BME280;23602;51.084;7.090;2023-03-23T00:19:14;99096.22;;;10.68;100.00
37764;BME280;23602;51.084;7.090;2023-03-23T00:21:44;99078.09;;;10.75;100.00
37764;BME280;23602;51.084;7.090;2023-03-23T00:24:17;99077.63;;;10.78;100.00
37764;BME280;23602;51.084;7.090;2023-03-23T00:26:44;99053.22;;;10.80;100.00
37764;BME280;23602;51.084;7.090;2023-03-23T00:31:39;99051.69;;;10.96;100.00
37764;BME280;23602;51.084;7.090;2023-03-23T00:34:05;99061.13;;;10.98;100.00
37764;BME280;23602;51.084;7.090;2023-03-23T00:36:31;99063.00;;;10.98;100.00
37764;BME280;23602;51.084;7.090;2023-03-23T00:39:01;99053.97;;;11.04;100.00
37764;BME280;23602;51.084;7.090;2023-03-23T00:41:26;99060.41;;;11.03;100.00
37764;BME280;23602;51.084;7.090;2023-03-23T00:43:56;99054.94;;;10.98;100.00
37764;BME280;23602;51.084;7.090;2023-03-23T00:46:22;99058.66;;;10.97;100.00
37764;BME280;23602;51.084;7.090;2023-03-23T00:48:48;99053.28;;;10.97;100.00
37764;BME280;23602;51.084;7.090;2023-03-23T00:51:15;99044.91;;;10.93;100.00
37764;BME280;23602;51.084;7.090;2023-03-23T00:53:41;99065.94;;;10.85;100.00
37764;BME280;23602;51.084;7.090;2023-03-23T00:56:07;99069.09;;;10.82;100.00
37764;BME280;23602;51.084;7.090;2023-03-23T00:58:33;99057.41;;;10.88;100.00
37764;BME280;23602;51.084;7.090;2023-03-23T01:00:58;99045.03;;;10.87;100.00
37764;BME280;23602;51.084;7.090;2023-03-23T01:03:24;99042.69;;;10.90;100.00
37764;BME280;23602;51.084;7.090;2023-03-23T01:05:51;99032.88;;;10.84;100.00
37764;BME280;23602;51.084;7.090;2023-03-23T01:08:16;99052.03;;;10.88;100.00
37764;BME280;23602;51.084;7.090;2023-03-23T01:10:43;99056.34;;;10.89;100.00
37764;BME280;23602;51.084;7.090;2023-03-23T01:13:09;99056.81;;;10.86;100.00
37764;BME280;23602;51.084;7.090;2023-03-23T01:15:36;99051.34;;;10.80;100.00
37764;BME280;23602;51.084;7.090;2023-03-23T01:18:02;99020.00;;;10.98;100.00
37764;BME280;23602;51.084;7.090;2023-03-23T01:20:28;99018.16;;;10.87;100.00
37764;BME280;23602;51.084;7.090;2023-03-23T01:22:57;99031.94;;;10.90;100.00
37764;BME280;23602;51.084;7.090;2023-03-23T01:25:25;99036.97;;;10.87;100.00
37764;BME280;23602;51.084;7.090;2023-03-23T01:27:51;99041.19;;;10.83;100.00
37764;BME280;23602;51.084;7.090;2023-03-23T01:30:16;99039.44;;;10.76;100.00
37764;BME280;23602;51.084;7.090;2023-03-23T01:32:42;99035.47;;;10.79;100.00
37764;BME280;23602;51.084;7.090;2023-03-23T01:35:08;99029.84;;;10.80;100.00
37764;BME280;23602;51.084;7.090;2023-03-23T01:37:34;99041.09;;;10.77;100.00
37764;BME280;23602;51.084;7.090;2023-03-23T01:40:01;99025.53;;;10.79;100.00
37764;BME280;23602;51.084;7.090;2023-03-23T01:42:33;99034.16;;;10.82;100.00
37764;BME280;23602;51.084;7.090;2023-03-23T01:45:20;99043.16;;;10.75;100.00
37764;BME280;23602;51.084;7.090;2023-03-23T01:50:34;99066.09;;;10.66;100.00
37764;BME280;23602;51.084;7.090;2023-03-23T01:53:01;99065.28;;;10.66;100.00
37764;BME280;23602;51.084;7.090;2023-03-23T01:55:27;99074.75;;;10.57;100.00
37764;BME280;23602;51.084;7.090;2023-03-23T01:57:53;99088.91;;;10.52;100.00
37764;BME280;23602;51.084;7.090;2023-03-23T02:00:19;99087.97;;;10.47;100.00
37764;BME280;23602;51.084;7.090;2023-03-23T02:02:47;99089.16;;;10.39;100.00
37764;BME280;23602;51.084;7.090;2023-03-23T02:05:19;99099.75;;;10.34;100.00
37764;BME280;23602;51.084;7.090;2023-03-23T02:07:46;99122.16;;;10.28;100.00
37764;BME280;23602;51.084;7.090;2023-03-23T02:10:12;99120.53;;;10.27;100.00
37764;BME280;23602;51.084;7.090;2023-03-23T02:12:38;99127.78;;;10.27;100.00
37764;BME280;23602;51.084;7.090;2023-03-23T02:15:03;99135.72;;;10.22;100.00
37764;BME280;23602;51.084;7.090;2023-03-23T02:25:25;99140.81;;;10.11;100.00
37764;BME280;23602;51.084;7.090;2023-03-23T02:33:29;99131.69;;;10.01;100.00
37764;BME280;23602;51.084;7.090;2023-03-23T02:38:53;99117.06;;;9.97;100.00
37764;BME280;23602;51.084;7.090;2023-03-23T02:41:21;99103.31;;;9.93;100.00
37764;BME280;23602;51.084;7.090;2023-03-23T02:43:47;99117.75;;;9.92;100.00
37764;BME280;23602;51.084;7.090;2023-03-23T02:46:14;99116.72;;;9.93;100.00
37764;BME280;23602;51.084;7.090;2023-03-23T02:48:41;99125.81;;;9.92;100.00
37764;BME280;23602;51.084;7.090;2023-03-23T02:51:07;99127.09;;;9.90;100.00
37764;BME280;23602;51.084;7.090;2023-03-23T02:53:34;99123.81;;;9.88;100.00
37764;BME280;23602;51.084;7.090;2023-03-23T02:56:01;99118.09;;;9.84;100.00
37764;BME280;23602;51.084;7.090;2023-03-23T02:58:29;99117.16;;;9.79;100.00
37764;BME280;23602;51.084;7.090;2023-03-23T03:00:55;99116.09;;;9.80;100.00
37764;BME280;23602;51.084;7.090;2023-03-23T03:03:21;99126.25;;;9.78;100.00
37764;BME280;23602;51.084;7.090;2023-03-23T03:08:27;99124.84;;;9.75;100.00
37764;BME280;23602;51.084;7.090;2023-03-23T03:10:59;99129.38;;;9.75;100.00
37764;BME280;23602;51.084;7.090;2023-03-23T03:13:30;99131.84;;;9.76;100.00
37764;BME280;23602;51.084;7.090;2023-03-23T03:16:07;99125.28;;;9.72;100.00
37764;BME280;23602;51.084;7.090;2023-03-23T03:18:45;99122.47;;;9.67;100.00
37764;BME280;23602;51.084;7.090;2023-03-23T03:21:12;99122.47;;;9.67;100.00
37764;BME280;23602;51.084;7.090;2023-03-23T03:23:39;99121.22;;;9.70;100.00
37764;BME280;23602;51.084;7.090;2023-03-23T03:26:06;99116.28;;;9.67;100.00
37764;BME280;23602;51.084;7.090;2023-03-23T03:28:34;99120.38;;;9.69;100.00
37764;BME280;23602;51.084;7.090;2023-03-23T03:31:00;99113.16;;;9.70;100.00
37764;BME280;23602;51.084;7.090;2023-03-23T03:33:27;99117.69;;;9.69;100.00
37764;BME280;23602;51.084;7.090;2023-03-23T03:35:56;99120.63;;;9.68;100.00
37764;BME280;23602;51.084;7.090;2023-03-23T03:38:22;99116.09;;;9.68;100.00
37764;BME280;23602;51.084;7.090;2023-03-23T03:40:47;99107.22;;;9.68;100.00
37764;BME280;23602;51.084;7.090;2023-03-23T03:43:12;99115.25;;;9.68;100.00
37764;BME280;23602;51.084;7.090;2023-03-23T03:45:40;99122.47;;;9.67;100.00
37764;BME280;23602;51.084;7.090;2023-03-23T03:48:07;99121.66;;;9.67;100.00
37764;BME280;23602;51.084;7.090;2023-03-23T03:50:32;99119.56;;;9.69;100.00
37764;BME280;23602;51.084;7.090;2023-03-23T03:52:58;99128.22;;;9.71;100.00
37764;BME280;23602;51.084;7.090;2023-03-23T03:55:23;99132.06;;;9.75;100.00
37764;BME280;23602;51.084;7.090;2023-03-23T03:57:53;99132.31;;;9.73;100.00
37764;BME280;23602;51.084;7.090;2023-03-23T04:00:19;99124.84;;;9.75;100.00
37764;BME280;23602;51.084;7.090;2023-03-23T04:02:48;99126.13;;;9.73;100.00
37764;BME280;23602;51.084;7.090;2023-03-23T04:05:15;99126.13;;;9.73;100.00
37764;BME280;23602;51.084;7.090;2023-03-23T04:07:41;99117.84;;;9.74;100.00
37764;BME280;23602;51.084;7.090;2023-03-23T04:10:07;99117.00;;;9.74;100.00
37764;BME280;23602;51.084;7.090;2023-03-23T04:12:34;99119.09;;;9.72;100.00
37764;BME280;23602;51.084;7.090;2023-03-23T04:14:59;99110.47;;;9.70;100.00
37764;BME280;23602;51.084;7.090;2023-03-23T04:17:25;99100.56;;;9.70;100.00
37764;BME280;23602;51.084;7.090;2023-03-23T04:19:52;99107.78;;;9.70;100.00
37764;BME280;23602;51.084;7.090;2023-03-23T04:22:17;99091.81;;;9.75;100.00
37764;BME280;23602;51.084;7.090;2023-03-23T04:24:43;99090.78;;;9.76;100.00
37764;BME280;23602;51.084;7.090;2023-03-23T04:27:08;99078.41;;;9.75;100.00
37764;BME280;23602;51.084;7.090;2023-03-23T04:29:34;99085.88;;;9.73;100.00
37764;BME280;23602;51.084;7.090;2023-03-23T04:32:00;99082.75;;;9.76;100.00
37764;BME280;23602;51.084;7.090;2023-03-23T04:34:26;99086.91;;;9.72;100.00
37764;BME280;23602;51.084;7.090;2023-03-23T04:36:52;99084.34;;;9.65;100.00
37764;BME280;23602;51.084;7.090;2023-03-23T04:39:18;99085.75;;;9.68;100.00
37764;BME280;23602;51.084;7.090;2023-03-23T04:41:43;99081.53;;;9.72;100.00
37764;BME280;23602;51.084;7.090;2023-03-23T04:44:09;99084.47;;;9.70;100.00
37764;BME280;23602;51.084;7.090;2023-03-23T04:46:35;99084.69;;;9.69;100.00
37764;BME280;23602;51.084;7.090;2023-03-23T04:49:00;99091.31;;;9.66;100.00
37764;BME280;23602;51.084;7.090;2023-03-23T04:51:28;99094.00;;;9.66;100.00
37764;BME280;23602;51.084;7.090;2023-03-23T04:53:54;99091.13;;;9.68;100.00
37764;BME280;23602;51.084;7.090;2023-03-23T04:56:19;99087.50;;;9.74;100.00
37764;BME280;23602;51.084;7.090;2023-03-23T04:58:45;99079.94;;;9.71;100.00
37764;BME280;23602;51.084;7.090;2023-03-23T05:01:11;99087.75;;;9.72;100.00
37764;BME280;23602;51.084;7.090;2023-03-23T05:03:40;99093.09;;;9.72;100.00
37764;BME280;23602;51.084;7.090;2023-03-23T05:06:05;99087.75;;;9.72;100.00
37764;BME280;23602;51.084;7.090;2023-03-23T05:08:31;99082.75;;;9.76;100.00
37764;BME280;23602;51.084;7.090;2023-03-23T05:10:58;99095.34;;;9.75;100.00
37764;BME280;23602;51.084;7.090;2023-03-23T05:13:24;99107.91;;;9.75;100.00
37764;BME280;23602;51.084;7.090;2023-03-23T05:15:50;99102.09;;;9.78;100.00
37764;BME280;23602;51.084;7.090;2023-03-23T05:18:15;99097.09;;;9.81;100.00
37764;BME280;23602;51.084;7.090;2023-03-23T05:20:41;99103.28;;;9.82;100.00
37764;BME280;23602;51.084;7.090;2023-03-23T05:23:11;99102.22;;;9.83;100.00
37764;BME280;23602;51.084;7.090;2023-03-23T05:25:37;99091.25;;;9.84;100.00
37764;BME280;23602;51.084;7.090;2023-03-23T05:28:06;99100.13;;;9.85;100.00
37764;BME280;23602;51.084;7.090;2023-03-23T05:30:31;99101.19;;;9.84;100.00
37764;BME280;23602;51.084;7.090;2023-03-23T05:32:56;99103.88;;;9.84;100.00
37764;BME280;23602;51.084;7.090;2023-03-23T05:35:22;99101.53;;;9.87;100.00
37764;BME280;23602;51.084;7.090;2023-03-23T05:37:47;99101.53;;;9.87;100.00
37764;BME280;23602;51.084;7.090;2023-03-23T05:40:13;99102.34;;;9.88;100.00
37764;BME280;23602;51.084;7.090;2023-03-23T05:42:39;99103.41;;;9.87;100.00
37764;BME280;23602;51.084;7.090;2023-03-23T05:45:08;99109.81;;;9.86;100.00
37764;BME280;23602;51.084;7.090;2023-03-23T05:47:34;99096.53;;;9.91;100.00
37764;BME280;23602;51.084;7.090;2023-03-23T05:49:59;99095.25;;;9.93;100.00
37764;BME280;23602;51.084;7.090;2023-03-23T05:52:25;99094.56;;;9.98;100.00
37764;BME280;23602;51.084;7.090;2023-03-23T05:54:51;99093.53;;;9.99;100.00
37764;BME280;23602;51.084;7.090;2023-03-23T05:57:16;99089.78;;;10.00;100.00
37764;BME280;23602;51.084;7.090;2023-03-23T05:59:42;99103.19;;;10.00;100.00
37764;BME280;23602;51.084;7.090;2023-03-23T06:02:08;99090.84;;;9.99;100.00
37764;BME280;23602;51.084;7.090;2023-03-23T06:04:34;99097.63;;;10.01;100.00
37764;BME280;23602;51.084;7.090;2023-03-23T06:07:03;99091.75;;;10.04;100.00
37764;BME280;23602;51.084;7.090;2023-03-23T06:09:28;99101.22;;;10.07;100.00
37764;BME280;23602;51.084;7.090;2023-03-23T06:11:54;99101.22;;;10.07;100.00
37764;BME280;23602;51.084;7.090;2023-03-23T06:14:19;99096.00;;;10.12;100.00
37764;BME280;23602;51.084;7.090;2023-03-23T06:16:47;99104.25;;;10.10;100.00
37764;BME280;23602;51.084;7.090;2023-03-23T06:19:12;99106.94;;;10.10;100.00
37764;BME280;23602;51.084;7.090;2023-03-23T06:21:41;99104.41;;;10.15;100.00
37764;BME280;23602;51.084;7.090;2023-03-23T06:24:09;99106.97;;;10.22;100.00
37764;BME280;23602;51.084;7.090;2023-03-23T06:26:36;99109.00;;;10.27;100.00
37764;BME280;23602;51.084;7.090;2023-03-23T06:29:02;99110.16;;;10.31;100.00
37764;BME280;23602;51.084;7.090;2023-03-23T06:31:36;99111.53;;;10.33;100.00
37764;BME280;23602;51.084;7.090;2023-03-23T06:34:02;99114.34;;;10.38;100.00
37764;BME280;23602;51.084;7.090;2023-03-23T06:36:27;99106.06;;;10.40;100.00
37764;BME280;23602;51.084;7.090;2023-03-23T06:38:53;99094.25;;;10.41;100.00
37764;BME280;23602;51.084;7.090;2023-03-23T06:41:20;99093.22;;;10.42;100.00
37764;BME280;23602;51.084;7.090;2023-03-23T06:43:46;99089.25;;;10.44;100.00
37764;BME280;23602;51.084;7.090;2023-03-23T06:46:12;99062.97;;;10.46;100.00
37764;BME280;23602;51.084;7.090;2023-03-23T06:48:37;99074.41;;;10.53;100.00
37764;BME280;23602;51.084;7.090;2023-03-23T06:51:03;99079.06;;;10.58;100.00
37764;BME280;23602;51.084;7.090;2023-03-23T06:53:29;99060.16;;;10.64;100.00
37764;BME280;23602;51.084;7.090;2023-03-23T06:55:54;99058.72;;;10.73;100.00
37764;BME280;23602;51.084;7.090;2023-03-23T06:58:20;99076.03;;;10.77;100.00
37764;BME280;23602;51.084;7.090;2023-03-23T07:00:46;99087.09;;;10.81;100.00
37764;BME280;23602;51.084;7.090;2023-03-23T07:03:12;99082.28;;;10.83;100.00
37764;BME280;23602;51.084;7.090;2023-03-23T07:05:38;99068.84;;;10.83;100.00
37764;BME280;23602;51.084;7.090;2023-03-23T07:08:04;99069.94;;;10.82;100.00
37764;BME280;23602;51.084;7.090;2023-03-23T07:10:29;99062.69;;;10.83;100.00
37764;BME280;23602;51.084;7.090;2023-03-23T07:12:54;99075.88;;;10.84;100.00
37764;BME280;23602;51.084;7.090;2023-03-23T07:15:20;99074.00;;;10.85;100.00
37764;BME280;23602;51.084;7.090;2023-03-23T07:17:46;99074.34;;;10.88;100.00
37764;BME280;23602;51.084;7.090;2023-03-23T07:20:12;99059.03;;;10.89;100.00
37764;BME280;23602;51.084;7.090;2023-03-23T07:22:37;99060.69;;;10.90;100.00
37764;BME280;23602;51.084;7.090;2023-03-23T07:25:03;99051.78;;;10.89;100.00
37764;BME280;23602;51.084;7.090;2023-03-23T07:27:29;99061.25;;;10.92;100.00
37764;BME280;23602;51.084;7.090;2023-03-23T07:29:54;99061.81;;;10.94;100.00
37764;BME280;23602;51.084;7.090;2023-03-23T07:32:20;99042.53;;;10.97;100.00
37764;BME280;23602;51.084;7.090;2023-03-23T07:34:45;99047.78;;;11.03;100.00
37764;BME280;23602;51.084;7.090;2023-03-23T07:37:11;99037.94;;;11.09;100.00
37764;BME280;23602;51.084;7.090;2023-03-23T07:39:37;99026.69;;;11.12;100.00
37764;BME280;23602;51.084;7.090;2023-03-23T07:42:03;99031.59;;;11.15;100.00
37764;BME280;23602;51.084;7.090;2023-03-23T07:44:28;99032.16;;;11.17;100.00
37764;BME280;23602;51.084;7.090;2023-03-23T07:46:53;99028.75;;;11.21;100.00
37764;BME280;23602;51.084;7.090;2023-03-23T07:49:19;99036.59;;;11.23;100.00
37764;BME280;23602;51.084;7.090;2023-03-23T07:51:45;99028.63;;;11.28;100.00
37764;BME280;23602;51.084;7.090;2023-03-23T07:54:11;99032.72;;;11.30;100.00
37764;BME280;23602;51.084;7.090;2023-03-23T07:56:37;99033.03;;;11.34;100.00
37764;BME280;23602;51.084;7.090;2023-03-23T07:59:04;99030.69;;;11.37;100.00
37764;BME280;23602;51.084;7.090;2023-03-23T08:01:41;99026.22;;;11.43;100.00
37764;BME280;23602;51.084;7.090;2023-03-23T08:04:12;99031.19;;;11.51;100.00
37764;BME280;23602;51.084;7.090;2023-03-23T08:06:38;99031.03;;;11.58;100.00
37764;BME280;23602;51.084;7.090;2023-03-23T08:09:04;99025.66;;;11.58;100.00
37764;BME280;23602;51.084;7.090;2023-03-23T08:11:34;99021.91;;;11.59;100.00
37764;BME280;23602;51.084;7.090;2023-03-23T08:13:59;99025.16;;;11.61;100.00
37764;BME280;23602;51.084;7.090;2023-03-23T08:16:25;99011.25;;;11.64;100.00
37764;BME280;23602;51.084;7.090;2023-03-23T08:18:50;99022.31;;;11.67;100.00
37764;BME280;23602;51.084;7.090;2023-03-23T08:21:16;99018.69;;;11.73;100.00
37764;BME280;23602;51.084;7.090;2023-03-23T08:23:42;99001.31;;;11.81;100.00
37764;BME280;23602;51.084;7.090;2023-03-23T08:26:08;99007.75;;;11.80;100.00
37764;BME280;23602;51.084;7.090;2023-03-23T08:28:35;99015.97;;;11.90;100.00
37764;BME280;23602;51.084;7.090;2023-03-23T08:31:07;99018.59;;;11.85;100.00
37764;BME280;23602;51.084;7.090;2023-03-23T08:33:33;99020.41;;;11.79;100.00
37764;BME280;23602;51.084;7.090;2023-03-23T08:35:59;99016.81;;;11.90;100.00
37764;BME280;23602;51.084;7.090;2023-03-23T08:38:26;99018.53;;;11.96;100.00
37764;BME280;23602;51.084;7.090;2023-03-23T08:40:56;99020.72;;;11.99;100.00
37764;BME280;23602;51.084;7.090;2023-03-23T08:43:22;99030.00;;;12.09;100.00
37764;BME280;23602;51.084;7.090;2023-03-23T08:45:47;99013.28;;;12.07;100.00
37764;BME280;23602;51.084;7.090;2023-03-23T08:48:13;99014.19;;;12.12;100.00
37764;BME280;23602;51.084;7.090;2023-03-23T08:50:38;99023.38;;;12.16;100.00
37764;BME280;23602;51.084;7.090;2023-03-23T08:53:03;99019.56;;;12.12;100.00
37764;BME280;23602;51.084;7.090;2023-03-23T08:55:29;99011.78;;;12.16;100.00
37764;BME280;23602;51.084;7.090;2023-03-23T08:57:57;99012.81;;;12.10;100.00
37764;BME280;23602;51.084;7.090;2023-03-23T09:03:20;99034.91;;;12.12;100.00
37764;BME280;23602;51.084;7.090;2023-03-23T09:09:19;99035.25;;;11.98;100.00
37764;BME280;23602;51.084;7.090;2023-03-23T09:11:45;99059.41;;;11.93;100.00
37764;BME280;23602;51.084;7.090;2023-03-23T09:14:11;99047.81;;;11.93;100.00
37764;BME280;23602;51.084;7.090;2023-03-23T09:16:37;99042.75;;;11.96;100.00
37764;BME280;23602;51.084;7.090;2023-03-23T09:19:07;99051.41;;;11.98;100.00
37764;BME280;23602;51.084;7.090;2023-03-23T09:21:34;99046.69;;;11.89;100.00
37764;BME280;23602;51.084;7.090;2023-03-23T09:23:59;99051.06;;;11.95;100.00
37764;BME280;23602;51.084;7.090;2023-03-23T09:26:26;99054.34;;;11.97;100.00
37764;BME280;23602;51.084;7.090;2023-03-23T09:28:52;99044.88;;;11.94;100.00
37764;BME280;23602;51.084;7.090;2023-03-23T09:31:18;99047.06;;;11.97;100.00
37764;BME280;23602;51.084;7.090;2023-03-23T09:33:47;99046.50;;;11.95;100.00
37764;BME280;23602;51.084;7.090;2023-03-23T09:36:16;99050.09;;;12.01;100.00
37764;BME280;23602;51.084;7.090;2023-03-23T09:38:42;99057.34;;;12.00;100.00
37764;BME280;23602;51.084;7.090;2023-03-23T09:46:54;99058.25;;;12.06;100.00
37764;BME280;23602;51.084;7.090;2023-03-23T09:49:24;99076.88;;;12.08;100.00
37764;BME280;23602;51.084;7.090;2023-03-23T09:54:34;99064.53;;;11.95;100.00
37764;BME280;23602;51.084;7.090;2023-03-23T09:57:01;99066.72;;;11.98;100.00
37764;BME280;23602;51.084;7.090;2023-03-23T09:59:33;99063.13;;;11.92;100.00
37764;BME280;23602;51.084;7.090;2023-03-23T10:02:17;99064.78;;;11.93;100.00
37764;BME280;23602;51.084;7.090;2023-03-23T10:04:47;99050.50;;;11.93;100.00
37764;BME280;23602;51.084;7.090;2023-03-23T10:07:17;99053.84;;;12.00;100.00
37764;BME280;23602;51.084;7.090;2023-03-23T10:09:44;99056.28;;;12.01;100.00
37764;BME280;23602;51.084;7.090;2023-03-23T10:15:19;99052.72;;;12.13;100.00
37764;BME280;23602;51.084;7.090;2023-03-23T10:19:52;99038.56;;;12.22;100.00
37764;BME280;23602;51.084;7.090;2023-03-23T10:22:23;99042.09;;;12.23;100.00
37764;BME280;23602;51.084;7.090;2023-03-23T10:24:54;99056.03;;;12.20;100.00
37764;BME280;23602;51.084;7.090;2023-03-23T10:29:49;99056.47;;;12.12;100.00
37764;BME280;23602;51.084;7.090;2023-03-23T10:32:18;99052.19;;;12.16;100.00
37764;BME280;23602;51.084;7.090;2023-03-23T10:39:41;99048.31;;;12.07;100.00
37764;BME280;23602;51.084;7.090;2023-03-23T10:42:09;99063.91;;;12.04;100.00
37764;BME280;23602;51.084;7.090;2023-03-23T10:44:35;99067.06;;;12.01;100.00
37764;BME280;23602;51.084;7.090;2023-03-23T10:47:04;99073.75;;;11.99;100.00
37764;BME280;23602;51.084;7.090;2023-03-23T10:49:32;99093.00;;;11.91;100.00
37764;BME280;23602;51.084;7.090;2023-03-23T10:52:01;99093.78;;;11.75;100.00
37764;BME280;23602;51.084;7.090;2023-03-23T10:54:35;99093.28;;;11.61;100.00
37764;BME280;23602;51.084;7.090;2023-03-23T11:00:17;99100.59;;;11.49;100.00
37764;BME280;23602;51.084;7.090;2023-03-23T11:02:45;99099.50;;;11.50;100.00
37764;BME280;23602;51.084;7.090;2023-03-23T11:05:16;99105.63;;;11.46;100.00
37764;BME280;23602;51.084;7.090;2023-03-23T11:07:47;99132.53;;;11.46;100.00
37764;BME280;23602;51.084;7.090;2023-03-23T11:10:21;99146.53;;;11.48;100.00
37764;BME280;23602;51.084;7.090;2023-03-23T11:12:47;99146.31;;;11.49;100.00
37764;BME280;23602;51.084;7.090;2023-03-23T11:17:54;99153.47;;;11.43;100.00
37764;BME280;23602;51.084;7.090;2023-03-23T11:20:20;99155.81;;;11.40;100.00
37764;BME280;23602;51.084;7.090;2023-03-23T11:22:48;99145.63;;;11.42;100.00
37764;BME280;23602;51.084;7.090;2023-03-23T11:25:14;99154.06;;;11.34;100.00
37764;BME280;23602;51.084;7.090;2023-03-23T11:27:39;99131.66;;;11.28;100.00
37764;BME280;23602;51.084;7.090;2023-03-23T11:30:09;99124.16;;;11.30;100.00
37764;BME280;23602;51.084;7.090;2023-03-23T11:32:35;99136.78;;;11.30;100.00
37764;BME280;23602;51.084;7.090;2023-03-23T11:35:02;99105.75;;;11.39;100.00
37764;BME280;23602;51.084;7.090;2023-03-23T11:37:35;99115.06;;;11.48;100.00
37764;BME280;23602;51.084;7.090;2023-03-23T11:42:55;99110.72;;;11.59;100.00
37764;BME280;23602;51.084;7.090;2023-03-23T11:45:36;99113.81;;;11.67;100.00
37764;BME280;23602;51.084;7.090;2023-03-23T11:51:04;99130.03;;;11.56;100.00
37764;BME280;23602;51.084;7.090;2023-03-23T11:56:36;99130.75;;;11.51;100.00
37764;BME280;23602;51.084;7.090;2023-03-23T11:59:02;99130.88;;;11.44;100.00
37764;BME280;23602;51.084;7.090;2023-03-23T12:01:38;99149.84;;;11.38;100.00
37764;BME280;23602;51.084;7.090;2023-03-23T12:06:52;99181.34;;;11.26;100.00
37764;BME280;23602;51.084;7.090;2023-03-23T12:14:51;99204.50;;;11.04;100.00
37764;BME280;23602;51.084;7.090;2023-03-23T12:17:36;99216.34;;;11.03;100.00
37764;BME280;23602;51.084;7.090;2023-03-23T12:23:29;99214.25;;;11.56;100.00
37764;BME280;23602;51.084;7.090;2023-03-23T12:31:43;99176.00;;;13.32;100.00
37764;BME280;23602;51.084;7.090;2023-03-23T12:44:21;99155.53;;;12.26;100.00
37764;BME280;23602;51.084;7.090;2023-03-23T12:46:55;99167.59;;;12.24;100.00
37764;BME280;23602;51.084;7.090;2023-03-23T12:49:28;99176.25;;;12.26;100.00
37764;BME280;23602;51.084;7.090;2023-03-23T12:52:02;99156.53;;;12.37;100.00
37764;BME280;23602;51.084;7.090;2023-03-23T12:54:47;99174.31;;;12.54;100.00
37764;BME280;23602;51.084;7.090;2023-03-23T13:00:29;99159.38;;;13.02;100.00
37764;BME280;23602;51.084;7.090;2023-03-23T13:05:43;99144.50;;;12.99;100.00
37764;BME280;23602;51.084;7.090;2023-03-23T13:08:22;99147.47;;;12.98;100.00
37764;BME280;23602;51.084;7.090;2023-03-23T13:10:57;99161.78;;;12.82;100.00
37764;BME280;23602;51.084;7.090;2023-03-23T13:13:45;99163.59;;;12.76;100.00
37764;BME280;23602;51.084;7.090;2023-03-23T13:16:32;99160.03;;;12.71;100.00
37764;BME280;23602;51.084;7.090;2023-03-23T13:19:13;99159.69;;;12.67;100.00
37764;BME280;23602;51.084;7.090;2023-03-23T13:24:38;99146.88;;;12.41;100.00
37764;BME280;23602;51.084;7.090;2023-03-23T13:27:06;99140.91;;;12.39;100.00
37764;BME280;23602;51.084;7.090;2023-03-23T13:29:36;99143.63;;;12.39;100.00
37764;BME280;23602;51.084;7.090;2023-03-23T13:32:15;99158.00;;;12.28;100.00
37764;BME280;23602;51.084;7.090;2023-03-23T13:34:41;99161.16;;;12.08;100.00
37764;BME280;23602;51.084;7.090;2023-03-23T13:37:10;99155.41;;;11.88;100.00
37764;BME280;23602;51.084;7.090;2023-03-23T13:39:38;99167.56;;;11.90;100.00
37764;BME280;23602;51.084;7.090;2023-03-23T13:49:55;99204.50;;;11.67;100.00
37764;BME280;23602;51.084;7.090;2023-03-23T13:57:51;99224.19;;;11.95;100.00
37764;BME280;23602;51.084;7.090;2023-03-23T14:08:45;99237.38;;;11.80;100.00
37764;BME280;23602;51.084;7.090;2023-03-23T14:11:19;99243.38;;;11.71;100.00
37764;BME280;23602;51.084;7.090;2023-03-23T14:16:19;99245.03;;;11.72;100.00
37764;BME280;23602;51.084;7.090;2023-03-23T14:21:38;99272.59;;;11.79;100.00
37764;BME280;23602;51.084;7.090;2023-03-23T14:24:24;99271.03;;;11.94;100.00
37764;BME280;23602;51.084;7.090;2023-03-23T14:27:17;99281.72;;;12.18;100.00
37764;BME280;23602;51.084;7.090;2023-03-23T14:29:50;99250.72;;;12.32;100.00
37764;BME280;23602;51.084;7.090;2023-03-23T14:32:28;99243.47;;;12.49;100.00
37764;BME280;23602;51.084;7.090;2023-03-23T14:35:04;99241.44;;;12.56;100.00
37764;BME280;23602;51.084;7.090;2023-03-23T14:37:42;99229.19;;;12.65;100.00
37764;BME280;23602;51.084;7.090;2023-03-23T14:40:13;99215.72;;;12.65;100.00
37764;BME280;23602;51.084;7.090;2023-03-23T14:42:40;99208.59;;;12.59;100.00
37764;BME280;23602;51.084;7.090;2023-03-23T14:45:06;99207.47;;;12.55;100.00
37764;BME280;23602;51.084;7.090;2023-03-23T14:47:37;99208.44;;;12.49;100.00
37764;BME280;23602;51.084;7.090;2023-03-23T14:50:21;99205.00;;;12.37;100.00
37764;BME280;23602;51.084;7.090;2023-03-23T14:52:48;99203.88;;;12.33;100.00
37764;BME280;23602;51.084;7.090;2023-03-23T14:57:51;99213.31;;;12.19;100.00
37764;BME280;23602;51.084;7.090;2023-03-23T15:02:53;99207.84;;;12.14;100.00
37764;BME280;23602;51.084;7.090;2023-03-23T15:05:22;99205.06;;;12.09;100.00
37764;BME280;23602;51.084;7.090;2023-03-23T15:08:11;99219.28;;;11.92;100.00
37764;BME280;23602;51.084;7.090;2023-03-23T15:13:55;99231.03;;;11.86;100.00
37764;BME280;23602;51.084;7.090;2023-03-23T15:16:30;99227.25;;;11.87;100.00